Weather at UNFICYP OP123 Heliport

Public forecast

Using degrees Celsius for public forecast. Weather courtesy of forecast.io.

Closest aviation weather report (METAR) to UNFICYP OP123 Heliport

Closest report is Larnaca International Airport, 9.3 nm (17.3 km) S.

2024/05/29 02:30 (retrieved 28 minutes ago)

LCLK 290230Z 31004KT 9999 SCT013 BKN017 19/17 Q1011 NOSIG

Closest aviation forecast (TAF) to UNFICYP OP123 Heliport

Forecast is more than 12 hours old.

Closest forecast is Hmeimim Air Base, 114.6 nm (212.3 km) ENE.

2024/05/28 06:00 (retrieved 21 hours ago)

TAF OSLK 280500Z 2806/2906 30010KT 6000 HZ SCT030 BKN100